Portada
METAR-TAF:

METAR-TAF

Aeroports :

Plataforma petroliera

Troll C, Noruega

latitud: 60-53-09N, longitud: 3-36-35E, altitud: 20 m

Observació

L'informe es va fer fa 33 minuts, a les 15:50 UTC
Vent 6 kt del Oest/Nord-Oest, variant entre Oest i Nord/Nord-Oest
Temperatura 4°C
Humitat 60%
Pressió 996 hPa
Visibilitat 10 km o més

METAR: ENQC 071550Z AUTO 29006KT 260V330 9999NDV SCT038/// 04/M03 Q0996 W///S5

Hora: 17:23 (16:23 UTC)


TAF: manca

Observacions i pronòstics meteorològics de més de 4000 aeroports (METAR i TAF).

Les estacions disponibles són els punts grocs i vermells al mapa.

Posi el ratolí al punt desitjat per veure el nom de l'estació.

Feu clic per veure les observacions i els pronòstics meteorològics.

Per canviar el mapa: feu clic els botons verds amb una creu de color negre per apropar; al botó verd amb un guió per allunyar la imatge; o en les fletxes verdes per a mapes adjacents.


METAR-TAF: